Terminal Aerodrome Forecast
Issued by NWS Wilmington, OH

Home | Current Version | Previous Version | Text Only | Print | Product List | Glossary On
Versions: 1 2 3 4 5 6 7 8 9 10 11 12 13 14 15 16 17 18 19 20 21 22 23 24 25 26 27 28
000
FTUS41 KILN 262100 AAA
TAFCVG
TAF AMD
KCVG 262108Z 2621/2724 01010KT P6SM SCT045
     FM270100 35004KT P6SM SCT040
     FM271300 32007KT P6SM BKN040
     FM272000 35011KT P6SM OVC040=

USA.gov is the U.S. government's official web portal to all federal, state and local government web resources and services.